LFOH/LEH METAR and TAF weather

Enter ICAO airport designator
Station Type Date Time Source
LFOH METAR 2021/05/14 04:00 UTC NOAA

LFOH 140400Z AUTO 24011KT 9999 OVC006/// ///TCU 09/09 Q1005


Station Type Date Time Source
LFOH Decoded METAR 2021/05/14 04:00 UTC NOAA

La Heve, France (LFOH) 49-31N 000-04E 103M
May 14, 2021 - 12:00 AM EDT / 2021.05.14 0400 UTC
Wind: from the WSW (240 degrees) at 13 MPH (11 KT):0
Visibility: greater than 7 mile(s):0
Sky conditions: overcast
Weather: Towering cumulus clouds observed
Temperature: 48 F (9 C)
Dew Point: 48 F (9 C)
Relative Humidity: 100%
Pressure (altimeter): 29.68 in. Hg (1005 hPa)
ob: LFOH 140400Z AUTO 24011KT 9999 OVC006/// ///TCU 09/09 Q1005
cycle: 4

Station Type Date Time Source
LFOH TAF 2021/05/13 18:21 UTC NOAA

TAF LFOH 131801Z 1318/1412 CNL

Example: see airport list